Time;durP1;ratioP1;P1;durP2;ratioP2;P2;SDS_P1;SDS_P2;PMS_P1;PMS_P2;Temp;Humidity;BMP_temperature;BMP_pressure;BME280_temperature;BME280_humidity;BME280_pressure;Samples;Min_cycle;Max_cycle;Signal;HPM_P1;HPM_P2
2021/05/18 00:01:27;;;;;;;0.47;0.37;;;;;;;12.85;59.88;98691.06;4413417;32;20121;-93
2021/05/18 00:03:53;;;;;;;0.50;0.40;;;;;;;12.84;59.88;98700.69;4413156;32;20097;-94
2021/05/18 00:06:19;;;;;;;3.28;0.70;;;;;;;12.82;59.89;98699.09;4413057;32;20112;-94
2021/05/18 00:11:44;;;;;;;0.88;0.40;;;;;;;12.84;59.88;98700.69;4436262;32;20104;-93
2021/05/18 00:14:23;;;;;;;0.70;0.30;;;;;;;12.91;59.89;98702.00;4432899;32;20089;-94
2021/05/18 00:16:50;;;;;;;2.22;0.75;;;;;;;13.05;59.90;98709.03;4414239;32;20143;-93
2021/05/18 00:19:16;;;;;;;1.08;0.40;;;;;;;12.97;59.88;98699.94;4413915;32;20158;-93
2021/05/18 00:21:41;;;;;;;0.55;0.25;;;;;;;12.99;59.89;98698.09;4413417;32;20105;-94
2021/05/18 00:24:07;;;;;;;0.55;0.20;;;;;;;13.12;59.90;98712.13;4413209;32;20093;-95
2021/05/18 00:26:33;;;;;;;2.30;0.40;;;;;;;12.95;59.88;98694.81;4426109;32;20119;-93
2021/05/18 00:28:58;;;;;;;2.72;0.37;;;;;;;13.05;59.90;98709.03;4413175;32;20126;-93
2021/05/18 00:31:23;;;;;;;0.70;0.30;;;;;;;13.02;59.89;98711.84;4425357;32;20156;-94
2021/05/18 00:33:49;;;;;;;0.37;0.20;;;;;;;13.00;59.89;98702.38;4412468;32;23913;-94
2021/05/18 00:36:14;;;;;;;0.62;0.30;;;;;;;12.95;59.89;98712.25;4413015;32;20145;-95
2021/05/18 00:38:40;;;;;;;2.62;0.35;;;;;;;12.98;59.89;98715.53;4425814;32;20106;-94
2021/05/18 00:41:06;;;;;;;0.82;0.32;;;;;;;12.85;59.88;98717.19;4413363;32;20120;-93
2021/05/18 00:43:31;;;;;;;0.35;0.20;;;;;;;12.81;59.88;98716.53;4438632;32;20108;-95
2021/05/18 00:45:57;;;;;;;0.82;0.32;;;;;;;12.86;59.89;98722.31;4413826;32;29628;-94
2021/05/18 00:48:23;;;;;;;0.93;0.20;;;;;;;12.84;59.89;98725.94;4415845;32;20105;-96
2021/05/18 00:50:56;;;;;;;0.75;0.22;;;;;;;12.91;59.88;98733.34;4415812;32;20109;-96
2021/05/18 00:53:22;;;;;;;6.00;0.62;;;;;;;12.91;59.89;98722.88;4416264;32;20085;-95
2021/05/18 01:01:14;;;;;;;0.75;0.20;;;;;;;13.04;59.88;98751.78;4430369;32;20168;-95
2021/05/18 01:03:40;;;;;;;0.57;0.30;;;;;;;12.96;59.88;98742.69;4416882;32;20093;-95
2021/05/18 01:06:25;;;;;;;4.90;0.20;;;;;;;12.90;59.89;98749.09;4415217;32;20116;-93
2021/05/18 01:08:57;;;;;;;0.50;0.50;;;;;;;13.03;59.89;98746.62;4419301;32;20109;-95
2021/05/18 01:11:27;;;;;;;1.42;0.20;;;;;;;13.00;59.90;98752.84;4441096;32;20097;-94
2021/05/18 01:13:57;;;;;;;;;;;;;;;12.87;59.88;98757.13;4415350;32;20116;-96
2021/05/18 01:16:23;;;;;;;0.28;0.17;;;;;;;12.93;59.88;98771.59;4428211;32;19953;-95
2021/05/18 01:18:49;;;;;;;1.17;0.28;;;;;;;13.00;59.89;98762.47;4415145;32;20120;-93
2021/05/18 01:21:14;;;;;;;3.55;0.50;;;;;;;12.85;59.88;98769.41;4414504;32;20466;-91
2021/05/18 01:23:40;;;;;;;3.62;0.43;;;;;;;12.95;59.88;98764.50;4415091;32;20115;-94
2021/05/18 01:26:05;;;;;;;0.45;0.10;;;;;;;12.90;59.89;98770.84;4415558;32;20116;-95
2021/05/18 01:28:31;;;;;;;1.75;0.20;;;;;;;12.99;59.89;98777.28;4415470;32;20101;-94
2021/05/18 01:30:56;;;;;;;0.85;0.20;;;;;;;12.90;59.89;98767.38;4414692;32;21208;-96
2021/05/18 01:33:22;;;;;;;0.35;0.30;;;;;;;12.95;59.89;98765.34;4415606;32;20111;-95
2021/05/18 01:35:49;;;;;;;2.55;0.10;;;;;;;12.83;59.88;98766.06;4415376;32;20113;-96
2021/05/18 01:38:18;;;;;;;1.05;0.20;;;;;;;13.01;59.90;98766.75;4417624;32;20206;-96
2021/05/18 01:43:29;;;;;;;2.55;0.30;;;;;;;12.82;59.89;98774.81;4443508;32;20147;-93
2021/05/18 01:45:54;;;;;;;0.98;0.30;;;;;;;12.86;59.88;98771.09;4430579;32;20137;-96
2021/05/18 01:48:19;;;;;;;0.98;0.20;;;;;;;12.84;59.88;98772.97;4417185;32;20190;-95
2021/05/18 01:50:46;;;;;;;2.05;0.50;;;;;;;12.77;59.88;98782.06;4428840;32;20119;-95
2021/05/18 01:53:13;;;;;;;2.30;0.20;;;;;;;12.93;59.89;98782.88;4415904;32;20180;-96
2021/05/18 01:55:51;;;;;;;1.27;0.30;;;;;;;13.05;59.90;98787.41;4416208;32;20106;-95
2021/05/18 01:58:16;;;;;;;0.90;0.30;;;;;;;12.93;59.89;98790.72;4418767;32;20165;-96
2021/05/18 02:00:42;;;;;;;0.80;0.40;;;;;;;13.02;59.88;98791.97;4429328;32;20101;-96
2021/05/18 02:03:08;;;;;;;0.55;0.30;;;;;;;12.79;59.88;98794.13;4428737;32;20181;-94
2021/05/18 02:05:36;;;;;;;0.80;0.37;;;;;;;12.89;59.88;98783.97;4423578;32;20135;-94
2021/05/18 02:08:04;;;;;;;3.40;0.50;;;;;;;12.85;59.88;98790.31;4423992;32;20070;-95
2021/05/18 02:10:29;;;;;;;1.95;0.40;;;;;;;12.96;59.88;98800.97;4415930;32;20109;-95
2021/05/18 02:12:55;;;;;;;1.08;0.30;;;;;;;12.90;59.89;98804.78;4415232;32;20081;-95
2021/05/18 02:20:54;;;;;;;1.15;0.30;;;;;;;12.88;59.89;98808.41;4428965;32;20500;-94
2021/05/18 02:26:03;;;;;;;0.55;0.30;;;;;;;12.76;59.88;98807.31;4429573;32;20096;-95
2021/05/18 02:28:29;;;;;;;1.85;0.22;;;;;;;12.78;59.88;98802.88;4416325;32;20101;-96
2021/05/18 02:30:55;;;;;;;1.15;0.47;;;;;;;12.52;59.87;98806.91;4440470;32;20101;-96
2021/05/18 02:33:21;;;;;;;0.77;0.40;;;;;;;12.68;59.88;98816.53;4414988;32;20104;-93
2021/05/18 02:35:46;;;;;;;0.70;0.40;;;;;;;12.72;59.88;98815.41;4415336;32;20148;-96
2021/05/18 02:38:12;;;;;;;0.43;0.32;;;;;;;12.69;59.88;98808.59;4415105;32;20173;-95
2021/05/18 02:40:40;;;;;;;5.22;0.45;;;;;;;12.62;59.87;98824.69;4414798;32;20121;-95
2021/05/18 02:43:05;;;;;;;0.80;0.30;;;;;;;12.67;59.88;98828.72;4428743;32;20085;-95
2021/05/18 02:46:10;;;;;;;2.45;0.37;;;;;;;12.79;59.88;98824.63;4415103;32;20149;-95
2021/05/18 02:51:08;;;;;;;1.90;0.50;;;;;;;12.81;59.88;98834.03;4429920;32;20099;-95
2021/05/18 02:53:34;;;;;;;1.67;0.32;;;;;;;12.71;59.87;98834.63;4415064;32;20105;-95
2021/05/18 02:56:10;;;;;;;1.02;0.40;;;;;;;12.84;59.88;98839.09;4415455;32;20094;-92
2021/05/18 02:58:38;;;;;;;1.00;0.40;;;;;;;12.79;59.88;98825.47;4417589;32;20793;-95
2021/05/18 03:01:03;;;;;;;1.80;0.40;;;;;;;12.54;59.86;98832.97;4415221;32;20117;-95
2021/05/18 03:03:28;;;;;;;1.05;0.40;;;;;;;12.62;59.87;98846.44;4414100;32;20138;-96
2021/05/18 03:05:55;;;;;;;2.62;0.30;;;;;;;12.64;59.87;98835.91;4414806;32;32251;-95
2021/05/18 03:08:23;;;;;;;2.58;0.60;;;;;;;12.67;59.88;98844.41;4415562;32;20176;-96
2021/05/18 03:10:48;;;;;;;3.33;1.20;;;;;;;12.64;59.87;98841.97;4433061;32;20117;-96
2021/05/18 03:13:24;;;;;;;2.10;0.50;;;;;;;12.60;59.87;98849.13;4421020;32;20287;-95
2021/05/18 03:15:56;;;;;;;2.50;0.43;;;;;;;12.48;59.86;98852.38;4449007;32;20050;-96
2021/05/18 03:18:23;;;;;;;0.57;0.30;;;;;;;12.46;59.86;98862.06;4421019;32;20102;-96
2021/05/18 03:20:55;;;;;;;0.52;0.30;;;;;;;12.43;59.86;98867.44;4423603;32;20053;-96
2021/05/18 03:23:21;;;;;;;1.25;0.40;;;;;;;12.53;59.87;98866.03;4456849;32;20089;-96
2021/05/18 03:25:46;;;;;;;0.80;0.30;;;;;;;12.43;59.86;98867.44;4430348;32;20132;-95
2021/05/18 03:28:11;;;;;;;0.35;0.28;;;;;;;12.42;59.86;98876.22;4441541;32;20128;-95
2021/05/18 03:35:55;;;;;;;1.33;0.28;;;;;;;12.52;59.87;98882.59;4444542;32;20714;-96
2021/05/18 03:40:54;;;;;;;0.60;0.30;;;;;;;12.54;59.87;98883.41;4442670;32;20124;-95
2021/05/18 04:04:58;;;;;;;1.95;0.22;;;;;;;12.75;59.88;98898.81;4429058;32;20108;-94
2021/05/18 04:10:47;;;;;;;0.70;0.40;;;;;;;12.82;59.89;98902.78;4434709;32;20154;-95
2021/05/18 04:19:07;;;;;;;0.70;0.20;;;;;;;12.93;59.89;98910.87;4429695;32;20095;-96
2021/05/18 04:24:36;;;;;;;0.70;0.20;;;;;;;13.10;59.90;98902.09;4435519;32;20066;-96
2021/05/18 04:49:39;;;;;;;0.52;0.25;;;;;;;13.37;59.91;98931.94;4451907;32;20076;-95
2021/05/18 04:51:59;;;;;;;0.75;0.52;;;;;;;13.57;59.92;98928.22;4442392;32;20062;-96
2021/05/18 05:00:05;;;;;;;3.42;0.30;;;;;;;13.46;59.91;98920.97;4440075;32;20138;-96
2021/05/18 05:02:55;;;;;;;7.85;0.32;;;;;;;13.66;59.93;98932.06;4437089;32;20061;-96
2021/05/18 05:08:28;;;;;;;0.35;0.17;;;;;;;13.99;59.94;98932.72;4445103;32;20100;-96
2021/05/18 05:16:03;;;;;;;1.67;0.25;;;;;;;14.40;59.96;98945.94;4432658;32;20162;-95
2021/05/18 05:18:28;;;;;;;0.75;0.25;;;;;;;14.48;59.97;98936.84;4418409;32;20121;-96
2021/05/18 05:20:54;;;;;;;0.95;0.22;;;;;;;14.29;59.96;98935.28;4417070;32;20125;-95
2021/05/18 05:23:19;;;;;;;1.23;0.40;;;;;;;14.21;59.96;98937.53;4416153;32;20113;-95
2021/05/18 05:25:46;;;;;;;0.45;0.40;;;;;;;14.38;59.96;98934.72;4416483;32;20151;-93
2021/05/18 05:28:12;;;;;;;0.20;0.20;;;;;;;14.50;59.97;98937.56;4429475;32;20139;-94
2021/05/18 05:30:38;;;;;;;2.17;0.28;;;;;;;14.48;59.97;98949.94;4430273;32;20738;-96
2021/05/18 05:33:03;;;;;;;1.20;0.30;;;;;;;14.40;59.96;98937.25;4416560;32;20116;-95
2021/05/18 05:35:29;;;;;;;1.77;0.30;;;;;;;14.39;59.96;98939.03;4416361;32;20158;-95
2021/05/18 05:37:55;;;;;;;4.20;0.30;;;;;;;14.56;59.98;98937.19;4428121;32;20101;-95
2021/05/18 05:40:21;;;;;;;1.65;0.22;;;;;;;14.83;59.99;98947.75;4416219;32;20687;-96
2021/05/18 05:42:46;;;;;;;2.40;0.28;;;;;;;14.98;60.00;98937.16;4418540;32;20117;-95
2021/05/18 05:45:14;;;;;;;0.65;0.20;;;;;;;15.02;60.01;98938.66;4418169;32;20128;-95
2021/05/18 05:47:40;;;;;;;0.37;0.20;;;;;;;15.04;60.00;98935.94;4432179;32;20146;-94
2021/05/18 05:50:12;;;;;;;0.20;0.20;;;;;;;15.08;60.00;98936.56;4423319;32;20117;-95
2021/05/18 05:52:51;;;;;;;0.32;0.13;;;;;;;15.12;60.01;98935.44;4438463;32;20082;-95
2021/05/18 05:58:12;;;;;;;0.75;0.20;;;;;;;15.38;60.02;98944.25;4451470;32;20203;-96
2021/05/18 06:00:40;;;;;;;1.00;0.30;;;;;;;15.40;60.03;98945.88;4437694;32;20114;-95
2021/05/18 06:04:01;;;;;;;0.57;0.50;;;;;;;15.60;60.03;98934.09;4449524;32;20066;-96
2021/05/18 06:06:51;;;;;;;1.92;0.20;;;;;;;15.82;60.04;98928.25;4459339;32;20074;-96
2021/05/18 06:09:29;;;;;;;1.95;0.37;;;;;;;15.89;60.05;98937.44;4462814;32;20069;-96
2021/05/18 06:13:07;;;;;;;3.08;0.60;;;;;;;15.91;60.04;98935.53;4449707;32;20173;-96
2021/05/18 06:37:39;;;;;;;0.60;0.30;;;;;;;16.20;60.06;98992.19;4446464;32;20070;-95
2021/05/18 06:48:16;;;;;;;;;;;;;;;16.64;60.09;98993.59;4448360;32;20110;-96
2021/05/18 06:50:41;;;;;;;0.57;0.20;;;;;;;17.00;60.10;99002.50;4432818;32;19991;-95
2021/05/18 06:53:08;;;;;;;1.45;0.30;;;;;;;17.11;60.11;98997.34;4417872;32;20133;-96
2021/05/18 06:55:36;;;;;;;1.30;0.20;;;;;;;17.07;60.10;99017.75;4445229;32;20114;-95
2021/05/18 06:58:13;;;;;;;0.65;0.30;;;;;;;16.69;60.09;99030.91;4420039;32;20066;-95
2021/05/18 07:00:42;;;;;;;1.00;0.40;;;;;;;16.77;60.09;99006.72;4443982;32;20101;-96
2021/05/18 07:03:12;;;;;;;2.47;0.33;;;;;;;16.76;60.09;99011.16;4420703;32;20101;-96
2021/05/18 07:10:49;;;;;;;2.80;0.23;;;;;;;16.93;60.11;99015.25;4445022;32;20105;-95
2021/05/18 07:13:18;;;;;;;2.45;0.40;;;;;;;17.13;60.11;99033.09;4432103;32;20251;-95
2021/05/18 07:15:47;;;;;;;2.62;0.68;;;;;;;17.17;60.12;99025.84;4446442;32;20877;-96
2021/05/18 07:18:12;;;;;;;0.62;0.20;;;;;;;17.20;60.12;99017.72;4445868;32;20681;-95
2021/05/18 07:20:41;;;;;;;0.40;0.20;;;;;;;16.91;60.10;99040.81;4419779;32;20105;-96
2021/05/18 07:23:18;;;;;;;1.08;0.28;;;;;;;17.08;60.12;99032.59;4445278;32;20065;-95
2021/05/18 07:25:44;;;;;;;0.50;0.22;;;;;;;17.19;60.12;99034.44;4431453;32;20458;-96
2021/05/18 07:28:11;;;;;;;2.05;0.30;;;;;;;17.05;60.11;99024.94;4420896;32;20109;-95
2021/05/18 07:30:39;;;;;;;4.30;0.35;;;;;;;17.08;60.12;99035.22;4431639;32;20103;-95
2021/05/18 07:33:09;;;;;;;2.45;0.37;;;;;;;17.21;60.11;99048.34;4445352;32;20101;-94
2021/05/18 07:35:38;;;;;;;;;;;;;;;17.12;60.11;99033.22;4446702;32;20068;-96
2021/05/18 07:38:10;;;;;;;0.82;0.20;;;;;;;16.99;60.10;99042.91;4444677;32;19985;-96
2021/05/18 07:40:36;;;;;;;2.87;0.50;;;;;;;16.98;60.11;99044.69;4442675;32;20163;-95
2021/05/18 07:43:16;;;;;;;0.65;0.30;;;;;;;16.88;60.10;99054.16;4420005;32;20110;-95
2021/05/18 07:45:49;;;;;;;5.50;0.20;;;;;;;17.04;60.11;99033.75;4445444;32;20097;-95
2021/05/18 07:51:12;;;;;;;1.42;0.30;;;;;;;17.15;60.11;99056.66;4446334;32;20183;-94
2021/05/18 08:07:21;;;;;;;2.67;0.95;;;;;;;17.69;60.14;99058.97;4443359;32;20100;-95
2021/05/18 08:09:53;;;;;;;2.10;0.43;;;;;;;17.90;60.16;99039.00;4445114;32;20473;-95
2021/05/18 08:12:20;;;;;;;1.12;0.30;;;;;;;18.03;60.17;99052.12;4422142;32;20117;-95
2021/05/18 08:15:05;;;;;;;1.83;0.40;;;;;;;18.26;60.18;99053.03;4444594;32;20113;-95
2021/05/18 08:17:42;;;;;;;0.50;0.20;;;;;;;18.21;60.17;99049.88;4433438;32;20101;-96
2021/05/18 08:56:26;;;;;;;1.35;0.40;;;;;;;18.26;60.18;99077.59;4437379;32;20111;-96
2021/05/18 08:59:05;;;;;;;0.77;0.30;;;;;;;18.05;60.16;99084.44;4443258;32;20073;-96
2021/05/18 10:22:57;;;;;;;1.08;0.57;;;;;;;19.28;60.23;99108.50;4439680;32;20116;-93
2021/05/18 10:25:59;;;;;;;1.55;0.65;;;;;;;19.07;60.22;99134.75;4432148;32;20148;-94
2021/05/18 10:35:45;;;;;;;0.82;0.30;;;;;;;19.43;60.24;99106.50;4425981;32;20115;-93
2021/05/18 10:38:14;;;;;;;3.12;0.50;;;;;;;19.69;60.25;99104.47;4427072;32;20117;-94
2021/05/18 10:40:40;;;;;;;2.60;0.40;;;;;;;19.89;60.26;99101.91;4412830;32;20161;-93
2021/05/18 10:43:06;;;;;;;2.33;0.55;;;;;;;19.91;60.26;99099.97;4414448;32;20581;-94
2021/05/18 10:45:54;;;;;;;3.12;0.40;;;;;;;19.59;60.25;99106.97;4439102;32;20110;-96
2021/05/18 10:48:42;;;;;;;5.15;1.17;;;;;;;19.37;60.23;99118.34;4438829;32;20106;-95
2021/05/18 10:51:20;;;;;;;3.03;0.43;;;;;;;19.47;60.25;99124.59;4429246;32;20113;-94
2021/05/18 10:54:08;;;;;;;1.30;0.60;;;;;;;19.23;60.22;99134.44;4438340;32;20115;-93
2021/05/18 10:56:53;;;;;;;0.80;0.50;;;;;;;19.17;60.23;99117.28;4438306;32;20537;-93
2021/05/18 10:59:18;;;;;;;0.93;0.50;;;;;;;19.05;60.22;99156.94;4438191;32;20499;-95
2021/05/18 11:01:44;;;;;;;1.50;0.60;;;;;;;18.47;60.20;99164.75;4412664;32;20164;-95
2021/05/18 11:04:10;;;;;;;1.77;0.60;;;;;;;18.22;60.18;99189.44;4425308;32;20097;-95
2021/05/18 11:06:54;;;;;;;5.87;2.45;;;;;;;17.76;60.15;99178.69;4412501;32;24884;-95
2021/05/18 11:09:20;;;;;;;1.67;0.93;;;;;;;17.28;60.13;99188.19;4413447;32;20397;-94
2021/05/18 11:11:46;;;;;;;1.55;0.90;;;;;;;17.28;60.13;99189.03;4413300;32;20109;-95
2021/05/18 11:14:12;;;;;;;2.83;0.65;;;;;;;17.11;60.12;99178.78;4438832;32;20113;-94
2021/05/18 11:16:37;;;;;;;1.60;0.65;;;;;;;17.16;60.13;99188.06;4412883;32;20673;-94
2021/05/18 11:19:12;;;;;;;0.90;0.40;;;;;;;17.07;60.11;99174.69;4413324;32;20151;-92
2021/05/18 11:21:42;;;;;;;1.15;0.50;;;;;;;17.36;60.13;99168.28;4413176;32;20106;-96
2021/05/18 11:24:12;;;;;;;2.65;1.10;;;;;;;17.63;60.15;99159.41;4413542;32;20117;-93
2021/05/18 11:26:48;;;;;;;1.95;0.45;;;;;;;17.75;60.15;99145.44;4413029;32;20144;-95
2021/05/18 11:29:13;;;;;;;0.50;0.50;;;;;;;17.88;60.16;99151.47;4411913;32;20114;-93
2021/05/18 11:31:39;;;;;;;1.00;0.40;;;;;;;17.86;60.16;99142.84;4412602;32;20105;-93
2021/05/18 11:34:05;;;;;;;1.00;0.50;;;;;;;17.96;60.16;99143.88;4425900;32;20405;-96
2021/05/18 11:36:35;;;;;;;2.03;0.93;;;;;;;17.95;60.16;99150.09;4413887;32;20089;-95
2021/05/18 11:39:06;;;;;;;4.62;0.70;;;;;;;17.95;60.16;99147.44;4412609;32;20109;-95
2021/05/18 11:41:38;;;;;;;1.62;0.45;;;;;;;17.99;60.16;99141.03;4440295;32;20135;-94
2021/05/18 11:44:04;;;;;;;4.62;1.00;;;;;;;17.99;60.16;99148.09;4420936;32;20088;-95
2021/05/18 11:46:31;;;;;;;1.60;0.57;;;;;;;18.04;60.17;99144.19;4413486;32;20198;-94
2021/05/18 11:49:02;;;;;;;3.10;0.70;;;;;;;18.04;60.17;99148.59;4412358;32;20392;-94
2021/05/18 11:51:32;;;;;;;0.90;0.60;;;;;;;17.91;60.16;99153.06;4412341;32;20133;-95
2021/05/18 11:54:03;;;;;;;1.00;0.85;;;;;;;17.95;60.16;99146.59;4413880;32;20123;-94
2021/05/18 11:56:30;;;;;;;1.37;0.73;;;;;;;18.20;60.18;99143.03;4413422;32;20131;-95
2021/05/18 11:58:59;;;;;;;1.98;0.80;;;;;;;18.41;60.19;99129.12;4412894;32;20105;-95
2021/05/18 12:01:25;;;;;;;0.70;0.70;;;;;;;18.64;60.21;99137.16;4438892;32;20176;-93
2021/05/18 12:04:00;;;;;;;0.60;0.55;;;;;;;18.89;60.22;99136.16;4413683;32;20431;-94
2021/05/18 12:06:26;;;;;;;1.62;0.77;;;;;;;19.13;60.23;99128.16;4439475;32;20151;-96
2021/05/18 12:08:56;;;;;;;3.15;0.60;;;;;;;19.13;60.22;99134.28;4428176;32;20162;-96
2021/05/18 12:11:22;;;;;;;2.62;1.15;;;;;;;19.04;60.22;99126.25;4427426;32;20135;-96
2021/05/18 12:13:49;;;;;;;4.00;0.93;;;;;;;19.08;60.23;99123.25;4427553;32;20089;-96
2021/05/18 12:16:15;;;;;;;3.37;0.90;;;;;;;19.36;60.23;99119.31;4414755;32;20162;-96
2021/05/18 12:18:42;;;;;;;1.92;1.02;;;;;;;19.55;60.25;99124.00;4415756;32;20113;-95
2021/05/18 12:21:16;;;;;;;3.17;0.82;;;;;;;19.77;60.27;99118.72;4427777;32;20105;-94
2021/05/18 12:23:43;;;;;;;1.58;0.75;;;;;;;19.88;60.26;99116.06;4414614;32;20498;-93
2021/05/18 12:26:14;;;;;;;2.22;1.60;;;;;;;20.05;60.27;99113.84;4416386;32;20105;-93
2021/05/18 12:28:59;;;;;;;1.58;1.33;;;;;;;20.22;60.28;99102.75;4439122;32;20109;-96
2021/05/18 12:31:30;;;;;;;2.72;0.90;;;;;;;20.12;60.28;99105.31;4441047;32;20121;-95
2021/05/18 12:33:57;;;;;;;1.80;0.98;;;;;;;20.14;60.27;99106.03;4414447;32;20844;-96
2021/05/18 12:36:22;;;;;;;3.08;1.00;;;;;;;20.23;60.29;99101.78;4414639;32;20102;-96
2021/05/18 12:39:10;;;;;;;2.53;1.10;;;;;;;20.60;60.30;99098.78;4414225;32;20153;-94
2021/05/18 12:41:58;;;;;;;1.90;1.08;;;;;;;20.95;60.33;99095.78;4442133;32;20097;-95
2021/05/18 12:44:32;;;;;;;7.78;0.85;;;;;;;21.01;60.33;99100.56;4429786;32;20119;-94
2021/05/18 12:47:02;;;;;;;1.95;0.73;;;;;;;20.89;60.32;99109.56;4416253;32;20446;-94
2021/05/18 12:49:38;;;;;;;3.22;0.90;;;;;;;20.95;60.33;99104.56;4441274;32;20136;-95
2021/05/18 12:52:09;;;;;;;1.70;0.80;;;;;;;21.17;60.33;99110.69;4416061;32;20188;-93
2021/05/18 12:54:38;;;;;;;1.75;0.88;;;;;;;20.93;60.32;99110.97;4416115;32;20097;-94
2021/05/18 12:57:03;;;;;;;4.20;0.75;;;;;;;20.97;60.32;99109.72;4441212;32;20101;-94
2021/05/18 12:59:29;;;;;;;2.87;0.70;;;;;;;20.87;60.33;99112.34;4415070;32;20109;-94
2021/05/18 13:01:54;;;;;;;3.87;0.80;;;;;;;20.73;60.31;99110.00;4415566;32;20455;-94
2021/05/18 13:04:19;;;;;;;3.25;1.37;;;;;;;20.65;60.31;99115.09;4414888;32;20117;-93
2021/05/18 13:06:45;;;;;;;1.98;0.68;;;;;;;20.43;60.30;99123.97;4415297;32;20085;-94
2021/05/18 13:09:29;;;;;;;2.00;0.50;;;;;;;20.38;60.29;99119.03;4415301;32;20102;-95
2021/05/18 13:12:15;;;;;;;1.65;0.60;;;;;;;20.42;60.30;99117.84;4416317;32;20078;-94
2021/05/18 13:14:57;;;;;;;4.25;0.73;;;;;;;20.85;60.31;99108.97;4417983;32;20116;-93
2021/05/18 13:17:23;;;;;;;1.50;0.70;;;;;;;21.21;60.33;99110.28;4442598;32;20089;-96
2021/05/18 13:20:09;;;;;;;3.80;0.50;;;;;;;20.80;60.31;99116.44;4416576;32;20114;-96
2021/05/18 13:22:41;;;;;;;2.28;0.57;;;;;;;20.72;60.31;99119.75;4430238;32;20132;-96
2021/05/18 13:28:21;;;;;;;2.00;0.73;;;;;;;20.98;60.32;99111.41;4430334;32;20136;-94
2021/05/18 13:30:49;;;;;;;1.33;0.55;;;;;;;21.02;60.33;99115.47;4447642;32;20119;-93
2021/05/18 13:33:14;;;;;;;3.67;1.00;;;;;;;20.75;60.31;99087.75;4416934;32;20104;-94
2021/05/18 13:35:40;;;;;;;1.35;0.70;;;;;;;20.94;60.33;99108.19;4431941;32;20156;-94
2021/05/18 13:38:05;;;;;;;5.68;0.68;;;;;;;20.99;60.32;99113.09;4418067;32;20101;-95
2021/05/18 13:40:31;;;;;;;6.37;0.93;;;;;;;21.10;60.34;99111.22;4416380;32;20171;-94
2021/05/18 13:42:56;;;;;;;2.65;0.50;;;;;;;21.22;60.34;99103.19;4417210;32;20117;-93
2021/05/18 13:45:25;;;;;;;0.60;0.43;;;;;;;21.22;60.33;99104.00;4416722;32;20098;-96
2021/05/18 13:47:53;;;;;;;3.58;0.60;;;;;;;21.28;60.34;99100.03;4417876;32;20070;-95
2021/05/18 13:50:18;;;;;;;3.47;0.98;;;;;;;21.21;60.33;99099.69;4417507;32;20127;-96
2021/05/18 13:52:44;;;;;;;2.60;0.40;;;;;;;21.17;60.33;99108.87;4429724;32;20105;-96
2021/05/18 13:55:10;;;;;;;1.05;0.40;;;;;;;21.11;60.33;99097.00;4418777;32;20121;-96
2021/05/18 13:57:36;;;;;;;3.65;0.60;;;;;;;20.85;60.31;99114.28;4427856;32;20151;-94
2021/05/18 14:00:04;;;;;;;3.83;0.60;;;;;;;21.11;60.33;99110.25;4414914;32;20526;-95
2021/05/18 14:02:29;;;;;;;1.30;0.60;;;;;;;21.42;60.35;99115.56;4428153;32;20146;-95
2021/05/18 14:04:58;;;;;;;0.55;0.30;;;;;;;21.27;60.34;99101.84;4415323;32;20161;-95
2021/05/18 14:10:19;;;;;;;0.77;0.50;;;;;;;21.02;60.33;99118.09;4438433;32;20155;-94
2021/05/18 14:12:44;;;;;;;1.23;0.32;;;;;;;21.04;60.33;99106.41;4437933;32;20121;-92
2021/05/18 14:15:10;;;;;;;2.90;0.50;;;;;;;21.27;60.35;99111.59;4424783;32;26356;-94
2021/05/18 14:17:35;;;;;;;1.90;0.30;;;;;;;21.21;60.34;99110.28;4412425;32;20116;-94
2021/05/18 14:20:01;;;;;;;0.80;0.30;;;;;;;21.29;60.34;99113.12;4412200;32;20150;-94
2021/05/18 14:22:26;;;;;;;1.48;0.70;;;;;;;21.33;60.35;99124.31;4412290;32;20108;-94
2021/05/18 14:25:03;;;;;;;4.32;0.40;;;;;;;21.17;60.33;99110.69;4424704;32;20147;-93
2021/05/18 14:27:29;;;;;;;1.85;0.65;;;;;;;21.07;60.33;99108.84;4414934;32;20123;-94
2021/05/18 14:29:55;;;;;;;1.37;0.40;;;;;;;20.92;60.33;99112.78;4412366;32;20109;-94
2021/05/18 14:32:20;;;;;;;0.50;0.50;;;;;;;21.07;60.33;99103.53;4412347;32;20540;-92
2021/05/18 14:34:45;;;;;;;1.48;0.40;;;;;;;21.18;60.34;99109.72;4424625;32;21791;-93
2021/05/18 14:37:11;;;;;;;3.70;0.40;;;;;;;21.28;60.34;99107.97;4412206;32;20358;-94
2021/05/18 14:45:05;;;;;;;2.40;0.60;;;;;;;21.66;60.36;99105.47;4427456;32;20150;-92
2021/05/18 14:47:44;;;;;;;1.77;0.50;;;;;;;21.49;60.36;99108.75;4437627;32;20718;-92
2021/05/18 14:55:37;;;;;;;2.83;0.40;;;;;;;21.29;60.35;99112.28;4427306;32;20144;-95
2021/05/18 14:58:02;;;;;;;1.00;0.55;;;;;;;21.29;60.35;99112.28;4412221;32;20098;-94
2021/05/18 15:00:29;;;;;;;2.03;0.80;;;;;;;21.16;60.34;99109.84;4423906;32;34379;-95
2021/05/18 15:02:54;;;;;;;1.45;0.50;;;;;;;21.12;60.34;99116.37;4424872;32;20781;-94
2021/05/18 15:05:20;;;;;;;5.15;0.60;;;;;;;21.03;60.33;99123.28;4423749;32;20113;-93
2021/05/18 15:07:46;;;;;;;1.80;1.12;;;;;;;20.92;60.33;99128.66;4412582;32;20090;-92
2021/05/18 15:10:11;;;;;;;4.03;0.90;;;;;;;20.95;60.34;99141.63;4411883;32;20131;-94
2021/05/18 15:12:37;;;;;;;1.30;0.80;;;;;;;20.95;60.33;99136.31;4411873;32;20113;-93
2021/05/18 15:15:03;;;;;;;0.88;0.73;;;;;;;20.83;60.32;99146.16;4411641;32;20120;-93
2021/05/18 15:17:29;;;;;;;1.23;0.70;;;;;;;20.60;60.31;99147.22;4411889;32;20143;-94
2021/05/18 15:19:55;;;;;;;3.87;1.08;;;;;;;20.47;60.31;99135.97;4437705;32;20125;-94
2021/05/18 15:22:20;;;;;;;2.87;1.02;;;;;;;20.27;60.29;99150.78;4411911;32;20117;-92
2021/05/18 15:24:46;;;;;;;2.20;0.90;;;;;;;20.45;60.30;99154.59;4411553;32;20145;-94
2021/05/18 15:27:11;;;;;;;4.53;1.10;;;;;;;20.42;60.31;99156.66;4411908;32;20149;-93
2021/05/18 15:29:37;;;;;;;1.55;0.68;;;;;;;20.42;60.30;99160.16;4411316;32;20124;-92
2021/05/18 15:32:03;;;;;;;3.37;1.00;;;;;;;20.48;60.31;99159.62;4412740;32;20112;-93
2021/05/18 15:34:28;;;;;;;2.00;1.17;;;;;;;20.41;60.30;99166.41;4412804;32;20195;-93
2021/05/18 15:36:54;;;;;;;6.85;1.52;;;;;;;20.24;60.31;99167.72;4424773;32;20417;-92
2021/05/18 15:39:20;;;;;;;3.25;1.33;;;;;;;20.07;60.28;99168.25;4411582;32;20109;-94
2021/05/18 15:41:45;;;;;;;3.20;1.05;;;;;;;20.11;60.29;99153.84;4411744;32;20164;-93
2021/05/18 15:44:11;;;;;;;4.53;1.75;;;;;;;20.07;60.29;99155.03;4424473;32;20135;-94
2021/05/18 15:46:36;;;;;;;1.10;0.75;;;;;;;20.19;60.29;99155.84;4412038;32;20113;-93
2021/05/18 15:49:02;;;;;;;2.72;0.90;;;;;;;20.04;60.28;99151.78;4411593;32;20122;-93
2021/05/18 15:51:27;;;;;;;4.03;0.80;;;;;;;20.19;60.29;99153.22;4411482;32;20154;-93
2021/05/18 15:53:52;;;;;;;1.83;1.08;;;;;;;20.43;60.31;99145.97;4424328;32;20097;-94
2021/05/18 15:56:18;;;;;;;3.35;0.60;;;;;;;20.41;60.31;99149.69;4411708;32;20177;-94
2021/05/18 15:58:44;;;;;;;4.43;1.42;;;;;;;20.27;60.30;99149.94;4411598;32;20174;-95
2021/05/18 16:01:09;;;;;;;3.17;1.87;;;;;;;20.41;60.30;99158.47;4411271;32;20159;-94
2021/05/18 16:03:35;;;;;;;2.22;1.20;;;;;;;20.36;60.30;99157.97;4411618;32;20098;-93
2021/05/18 16:06:03;;;;;;;2.45;1.12;;;;;;;20.11;60.29;99156.50;4410641;32;22707;-94
2021/05/18 16:11:16;;;;;;;1.37;1.23;;;;;;;20.31;60.29;99169.87;4424118;32;20570;-94
2021/05/18 16:13:41;;;;;;;2.15;1.40;;;;;;;20.31;60.30;99164.56;4438852;32;20089;-93
2021/05/18 16:16:11;;;;;;;3.85;1.35;;;;;;;20.36;60.30;99171.19;4436763;32;20117;-96
2021/05/18 16:18:38;;;;;;;2.37;1.05;;;;;;;20.25;60.29;99165.94;4411475;32;20101;-94
2021/05/18 16:21:05;;;;;;;1.90;0.95;;;;;;;20.00;60.29;99175.00;4424210;32;20114;-93
2021/05/18 16:23:31;;;;;;;4.62;1.23;;;;;;;19.86;60.28;99177.87;4424080;32;20123;-93
2021/05/18 16:25:57;;;;;;;2.87;1.00;;;;;;;19.99;60.28;99162.75;4411408;32;20092;-93
2021/05/18 16:28:22;;;;;;;1.15;0.80;;;;;;;20.03;60.29;99161.53;4423717;32;20136;-94
2021/05/18 16:30:49;;;;;;;2.87;1.20;;;;;;;19.96;60.28;99165.63;4423701;32;20133;-93
2021/05/18 16:33:14;;;;;;;6.25;2.75;;;;;;;19.99;60.28;99170.66;4423711;32;20809;-93
2021/05/18 16:35:40;;;;;;;5.80;2.33;;;;;;;20.13;60.28;99169.56;4410656;32;20167;-94
2021/05/18 16:38:05;;;;;;;4.68;1.45;;;;;;;19.91;60.29;99176.56;4410857;32;20113;-94
2021/05/18 16:40:30;;;;;;;4.68;1.77;;;;;;;20.13;60.29;99164.28;4410572;32;27903;-93
2021/05/18 16:42:56;;;;;;;3.50;1.25;;;;;;;19.85;60.28;99173.56;4423649;32;20101;-94